Csl Melbourne — 8PWP — position and weather

sailwx.info

Track history (hours):
 
Tides and Currents Weather Stations Pressure Air Temp Water Temp Dewpoint Dewpoint Depression Visibility Wind Speed Wind Dir Waves Ship Positions

Csl Melbourne

Last reported at 2016-Jun-25 13:30 UTC. Time now 2016-Jun-25 14:15 UTC.
Position N 31°44' E 121°08'.

Length 187 m; draft 8.1 m.

Type: Cargo ship. MMSI: 314317000.

Date/timePositionNaut miles runAvg speedWind from/ knotsBaromVisibWave heightAir tempDewpointWater temp
2016-Jun-25 13:30N 31°44' E 121°08'0 0.0
2016-Jun-25 12:18N 31°44' E 121°08'0 0.0
2016-Jun-25 11:27N 31°44' E 121°08'0 0.0
2016-Jun-25 10:30N 31°44' E 121°08'0 0.2
2016-Jun-25 09:30N 31°44' E 121°08'0 0.1
2016-Jun-25 08:30N 31°44' E 121°08'0 0.2
2016-Jun-25 07:27N 31°44' E 121°08'0 0.0
2016-Jun-25 06:12N 31°44' E 121°08'0 0.0
2016-Jun-25 04:24N 31°44' E 121°08'0 0.0
2016-Jun-25 03:33N 31°44' E 121°08'0 0.0
2016-Jun-25 02:30N 31°44' E 121°08'0 0.0
2016-Jun-25 01:30N 31°44' E 121°08'0 0.0
2016-Jun-25 00:24N 31°44' E 121°08'0 0.0
2016-Jun-24 23:24N 31°44' E 121°08'0 0.0
2016-Jun-24 22:30N 31°44' E 121°08'0 0.1
2016-Jun-24 21:30N 31°44' E 121°08'0 0.2
2016-Jun-24 20:33N 31°44' E 121°08'0 0.0
2016-Jun-24 19:24N 31°44' E 121°08'0 0.1
2016-Jun-24 17:18N 31°44' E 121°08'0 0.0
2016-Jun-24 16:30N 31°44' E 121°08'0 0.0
2016-Jun-24 15:30N 31°44' E 121°08'0 0.1
2016-Jun-24 14:30N 31°44' E 121°08'0 0.0
2016-Jun-24 12:21N 31°44' E 121°08'0 0.0
2016-Jun-24 11:30N 31°44' E 121°08'1 0.7
2016-Jun-24 09:33N 31°44' E 121°06'1110.7
2016-Jun-24 08:32N 31°49' E 120°55'1311.5
2016-Jun-24 07:25N 32°01' E 120°47'7 6.2
2016-Jun-24 06:18N 31°59' E 120°39'0 0.0
2016-Jun-22 06:24N 31°59' E 120°39'0 0.0
2016-Jun-21 20:07N 31°59' E 120°39'0 0.0
2016-Jun-20 07:24N 31°59' E 120°39'0 0.0
2016-Jun-20 01:12N 31°59' E 120°39'0 0.1
2016-Jun-20 00:30N 31°59' E 120°39'4 4.3
2016-Jun-19 23:33N 31°60' E 120°44'0 0.0
2016-Jun-19 22:16N 31°60' E 120°44'0 0.0
2016-Jun-19 16:22N 31°60' E 120°44'6 7.7
2016-Jun-19 15:32N 31°60' E 120°37'1313.2
2016-Jun-19 14:32N 31°59' E 120°21'11 2.7
2016-Jun-19 10:25N 31°56' E 120°09'0 0.0
2016-Jun-19 07:19N 31°56' E 120°09'0 0.0
2016-Jun-18 07:31N 31°56' E 120°09'0 0.0
2016-Jun-18 03:25N 31°56' E 120°09'0 0.0
2016-Jun-18 00:31N 31°56' E 120°09'0 0.0
2016-Jun-16 15:32N 31°56' E 120°09'7 6.7
2016-Jun-16 14:30N 31°57' E 120°17'8 7.8
2016-Jun-16 13:28N 32°02' E 120°25'6 6.9
2016-Jun-16 12:32N 32°01' E 120°33'8 7.2
2016-Jun-16 11:26N 32°00' E 120°42'6 7.0
2016-Jun-16 10:33N 31°60' E 120°50'8 7.6
2016-Jun-16 09:29N 31°52' E 120°54'7 7.3
2016-Jun-16 08:33N 31°47' E 120°58'8 7.6
2016-Jun-16 07:33N 31°44' E 121°07'8 8.1
2016-Jun-16 06:33N 31°39' E 121°14'9 8.7
2016-Jun-16 05:33N 31°32' E 121°21'9 9.1
2016-Jun-16 04:33N 31°27' E 121°29'6 6.3
2016-Jun-16 03:33N 31°23' E 121°35'1010.1
2016-Jun-16 02:31N 31°18' E 121°46'1210.0
2016-Jun-16 01:21N 31°15' E 121°59'7 9.1
2016-Jun-16 00:32N 31°13' E 122°08'  
Track history (hours):
 
Tides and Currents Weather Stations Pressure Air Temp Water Temp Dewpoint Dewpoint Depression Visibility Wind Speed Wind Dir Waves Ship Positions

Csl Melbourne

Last reported at 2016-Jun-25 13:30 UTC. Time now 2016-Jun-25 14:15 UTC.
Position N 31°44' E 121°08'.

Length 187 m; draft 8.1 m.

Type: Cargo ship. MMSI: 314317000.

Date/timePositionNaut miles runAvg speedWind from/ knotsBaromVisibWave heightAir tempDewpointWater temp
2016-Jun-25 13:30N 31°44' E 121°08'0 0.0
2016-Jun-25 12:18N 31°44' E 121°08'0 0.0
2016-Jun-25 11:27N 31°44' E 121°08'0 0.0
2016-Jun-25 10:30N 31°44' E 121°08'0 0.2
2016-Jun-25 09:30N 31°44' E 121°08'0 0.1
2016-Jun-25 08:30N 31°44' E 121°08'0 0.2
2016-Jun-25 07:27N 31°44' E 121°08'0 0.0
2016-Jun-25 06:12N 31°44' E 121°08'0 0.0
2016-Jun-25 04:24N 31°44' E 121°08'0 0.0
2016-Jun-25 03:33N 31°44' E 121°08'0 0.0
2016-Jun-25 02:30N 31°44' E 121°08'0 0.0
2016-Jun-25 01:30N 31°44' E 121°08'0 0.0
2016-Jun-25 00:24N 31°44' E 121°08'0 0.0
2016-Jun-24 23:24N 31°44' E 121°08'0 0.0
2016-Jun-24 22:30N 31°44' E 121°08'0 0.1
2016-Jun-24 21:30N 31°44' E 121°08'0 0.2
2016-Jun-24 20:33N 31°44' E 121°08'0 0.0
2016-Jun-24 19:24N 31°44' E 121°08'0 0.1
2016-Jun-24 17:18N 31°44' E 121°08'0 0.0
2016-Jun-24 16:30N 31°44' E 121°08'0 0.0
2016-Jun-24 15:30N 31°44' E 121°08'0 0.1
2016-Jun-24 14:30N 31°44' E 121°08'0 0.0
2016-Jun-24 12:21N 31°44' E 121°08'0 0.0
2016-Jun-24 11:30N 31°44' E 121°08'1 0.7
2016-Jun-24 09:33N 31°44' E 121°06'1110.7
2016-Jun-24 08:32N 31°49' E 120°55'1311.5
2016-Jun-24 07:25N 32°01' E 120°47'7 6.2
2016-Jun-24 06:18N 31°59' E 120°39'0 0.0
2016-Jun-22 06:24N 31°59' E 120°39'0 0.0
2016-Jun-21 20:07N 31°59' E 120°39'0 0.0
2016-Jun-20 07:24N 31°59' E 120°39'0 0.0
2016-Jun-20 01:12N 31°59' E 120°39'0 0.1
2016-Jun-20 00:30N 31°59' E 120°39'4 4.3
2016-Jun-19 23:33N 31°60' E 120°44'0 0.0
2016-Jun-19 22:16N 31°60' E 120°44'0 0.0
2016-Jun-19 16:22N 31°60' E 120°44'6 7.7
2016-Jun-19 15:32N 31°60' E 120°37'1313.2
2016-Jun-19 14:32N 31°59' E 120°21'11 2.7
2016-Jun-19 10:25N 31°56' E 120°09'0 0.0
2016-Jun-19 07:19N 31°56' E 120°09'0 0.0
2016-Jun-18 07:31N 31°56' E 120°09'0 0.0
2016-Jun-18 03:25N 31°56' E 120°09'0 0.0
2016-Jun-18 00:31N 31°56' E 120°09'0 0.0
2016-Jun-16 15:32N 31°56' E 120°09'7 6.7
2016-Jun-16 14:30N 31°57' E 120°17'8 7.8
2016-Jun-16 13:28N 32°02' E 120°25'6 6.9
2016-Jun-16 12:32N 32°01' E 120°33'8 7.2
2016-Jun-16 11:26N 32°00' E 120°42'6 7.0
2016-Jun-16 10:33N 31°60' E 120°50'8 7.6
2016-Jun-16 09:29N 31°52' E 120°54'7 7.3
2016-Jun-16 08:33N 31°47' E 120°58'8 7.6
2016-Jun-16 07:33N 31°44' E 121°07'8 8.1
2016-Jun-16 06:33N 31°39' E 121°14'9 8.7
2016-Jun-16 05:33N 31°32' E 121°21'9 9.1
2016-Jun-16 04:33N 31°27' E 121°29'6 6.3
2016-Jun-16 03:33N 31°23' E 121°35'1010.1
2016-Jun-16 02:31N 31°18' E 121°46'1210.0
2016-Jun-16 01:21N 31°15' E 121°59'7 9.1
2016-Jun-16 00:32N 31°13' E 122°08'  

Dump ship's entire track history